CheckWX is a tool to help pilots better visualize weather data.  It is not intended as a substitute for an official pre-flight weather briefing.

09:24:11 UTC

KFCH METAR
Fresno Chandler Executive Airport
Fresno, California, USA
Current

29 mins ago

KFCH 250855Z AUTO 28006KT 10SM CLR 26/13 A2992 RMK A01
Observed
Aug-25 @ 08:55 UTC
Wind
  • 280° at 6 KTS
Visibility
10 SM
Flight Rules
VFR
Cloud Levels
  • Clear skies
Temperature
26°C / 79°F
Dewpoint
13°C / 55°F
Humidity
45%
Altimeter
29.92" Hg
Pressure
1013.22 hPa
Previous

49 mins ago

KFCH 250835Z AUTO 27007KT 10SM CLR 27/11 A2992 RMK A01
Observed
Aug-25 @ 08:35 UTC
Wind
  • 270° at 7 KTS
Visibility
10 SM
Flight Rules
VFR
Cloud Levels
  • Clear skies
Temperature
27°C / 81°F
Dewpoint
11°C / 52°F
Humidity
37%
Altimeter
29.92" Hg
Pressure
1013.22 hPa
Previous

1 hour ago

KFCH 250815Z AUTO 31008KT 10SM CLR 28/11 A2991 RMK A01
Observed
Aug-25 @ 08:15 UTC
Wind
  • 310° at 8 KTS
Visibility
10 SM
Flight Rules
VFR
Cloud Levels
  • Clear skies
Temperature
28°C / 82°F
Dewpoint
11°C / 52°F
Humidity
35%
Altimeter
29.91" Hg
Pressure
1012.92 hPa